createdAt,value
2018-09-30T00:00:33.214Z,91.07
2018-09-30T00:01:33.821Z,91.25
2018-09-30T00:02:34.159Z,91.30
2018-09-30T00:03:34.849Z,90.81
2018-09-30T00:04:35.357Z,90.92
2018-09-30T00:05:35.762Z,90.63
2018-09-30T00:06:36.255Z,90.30
2018-09-30T00:07:36.612Z,89.93
2018-09-30T00:08:37.126Z,90.11
2018-09-30T00:09:37.461Z,90.26
2018-09-30T00:10:37.817Z,89.88
2018-09-30T00:11:38.179Z,89.63
2018-09-30T00:12:38.566Z,89.62
2018-09-30T00:13:38.947Z,89.62
2018-09-30T00:14:39.313Z,89.09
2018-09-30T00:15:39.798Z,89.73
2018-09-30T00:16:40.198Z,89.28
2018-09-30T00:17:40.879Z,89.79
2018-09-30T00:18:41.174Z,89.40
2018-09-30T00:19:41.729Z,90.02
2018-09-30T00:20:40.981Z,89.76
2018-09-30T00:21:42.361Z,90.03
2018-09-30T00:22:42.794Z,89.91
2018-09-30T00:23:42.500Z,90.12
2018-09-30T00:24:42.912Z,89.95
2018-09-30T00:25:43.786Z,90.09
2018-09-30T00:26:45.148Z,90.24
2018-09-30T00:27:45.519Z,90.13
2018-09-30T00:28:45.870Z,90.25
2018-09-30T00:29:46.190Z,90.49
2018-09-30T00:30:46.596Z,90.64
2018-09-30T00:31:46.886Z,90.69
2018-09-30T00:32:47.219Z,90.78
2018-09-30T00:33:47.701Z,90.78
2018-09-30T00:34:48.037Z,90.79
2018-09-30T00:35:48.360Z,90.97
2018-09-30T00:36:48.770Z,91.22
2018-09-30T00:37:49.109Z,91.25
2018-09-30T00:38:49.442Z,91.32
2018-09-30T00:39:49.763Z,91.01
2018-09-30T00:40:50.060Z,91.10
2018-09-30T00:41:50.343Z,90.79
2018-09-30T00:41:58.402Z,91.01
2018-09-30T00:42:59.801Z,91.04
2018-09-30T00:44:00.313Z,90.87
2018-09-30T00:45:00.884Z,90.94
2018-09-30T00:46:01.199Z,91.24
2018-09-30T00:47:01.894Z,90.98
2018-09-30T00:48:02.443Z,90.13
2018-09-30T00:49:02.781Z,90.63
2018-09-30T00:50:03.097Z,90.32
2018-09-30T00:51:03.397Z,89.94
2018-09-30T00:52:03.681Z,89.99
2018-09-30T00:53:04.049Z,90.69
2018-09-30T00:54:08.484Z,90.52
2018-09-30T00:55:04.793Z,90.88
2018-09-30T00:56:04.829Z,90.27
2018-09-30T00:57:06.358Z,90.50
2018-09-30T00:58:05.673Z,90.33
2018-09-30T00:59:07.434Z,90.49
2018-09-30T01:00:07.795Z,90.86
2018-09-30T01:01:08.099Z,91.13
2018-09-30T01:02:08.382Z,91.17
2018-09-30T01:03:08.685Z,91.25
2018-09-30T01:04:09.077Z,91.04
2018-09-30T01:05:09.381Z,91.13
2018-09-30T01:06:09.739Z,91.19
2018-09-30T01:07:10.074Z,91.14
2018-09-30T01:08:10.365Z,90.95
2018-09-30T01:09:10.722Z,91.51
2018-09-30T01:10:11.041Z,91.23
2018-09-30T01:11:11.356Z,91.39
2018-09-30T01:12:11.692Z,91.47
2018-09-30T01:13:12.080Z,91.28
2018-09-30T01:14:12.420Z,91.52
2018-09-30T01:15:12.819Z,91.34
2018-09-30T01:16:13.186Z,91.39
2018-09-30T01:17:13.486Z,91.59
2018-09-30T01:18:13.777Z,91.42
2018-09-30T01:19:14.098Z,91.50
2018-09-30T01:20:14.545Z,91.79
2018-09-30T01:21:14.923Z,91.54
2018-09-30T01:22:15.261Z,92.01
2018-09-30T01:23:15.581Z,92.04
2018-09-30T01:24:15.883Z,92.20
2018-09-30T01:25:16.432Z,92.22
2018-09-30T01:26:16.811Z,91.73
2018-09-30T01:27:17.116Z,91.89
2018-09-30T01:28:17.039Z,92.28
2018-09-30T01:29:17.473Z,91.99
2018-09-30T01:30:18.137Z,92.39
2018-09-30T01:30:26.257Z,92.45
2018-09-30T01:31:27.579Z,92.45
2018-09-30T01:32:27.881Z,92.83
2018-09-30T01:33:28.245Z,92.92
2018-09-30T01:34:28.579Z,93.55
2018-09-30T01:35:28.942Z,93.17
2018-09-30T01:36:29.290Z,92.96
2018-09-30T01:37:29.630Z,92.92
2018-09-30T01:38:30.081Z,92.93
2018-09-30T01:39:29.432Z,93.25
2018-09-30T01:40:30.767Z,93.25
2018-09-30T01:41:31.111Z,93.87
2018-09-30T01:42:31.438Z,93.78
2018-09-30T01:43:31.843Z,93.59
2018-09-30T01:44:32.184Z,93.69
2018-09-30T01:45:31.935Z,93.09
2018-09-30T01:46:33.441Z,92.82
2018-09-30T01:47:33.764Z,93.07
2018-09-30T01:48:34.292Z,93.49
2018-09-30T01:49:34.794Z,93.41
2018-09-30T01:50:35.162Z,93.88
2018-09-30T01:51:35.595Z,93.80
2018-09-30T01:52:36.121Z,93.58
2018-09-30T01:53:35.671Z,93.83
2018-09-30T01:54:35.536Z,93.15
2018-09-30T01:55:37.072Z,93.34
2018-09-30T01:56:37.657Z,93.26
2018-09-30T01:57:37.318Z,93.13
2018-09-30T01:58:37.292Z,93.15
2018-09-30T01:59:38.753Z,93.44
2018-09-30T02:00:39.739Z,93.32
2018-09-30T02:01:40.202Z,92.95
2018-09-30T02:02:40.965Z,93.06
2018-09-30T02:03:40.160Z,93.23
2018-09-30T02:04:41.422Z,92.53
2018-09-30T02:05:42.288Z,92.16
2018-09-30T02:06:42.559Z,92.90
2018-09-30T02:07:43.080Z,92.59
2018-09-30T02:08:42.955Z,92.63
2018-09-30T02:09:43.017Z,92.73
2018-09-30T02:10:44.271Z,92.42
2018-09-30T02:11:44.073Z,93.05
2018-09-30T02:12:44.664Z,92.81
2018-09-30T02:13:45.083Z,93.23
2018-09-30T02:14:46.389Z,93.41
2018-09-30T02:15:46.887Z,93.39
2018-09-30T02:16:46.219Z,93.10
2018-09-30T02:17:47.778Z,93.04
2018-09-30T02:18:48.108Z,92.79
2018-09-30T02:19:48.595Z,92.99
2018-09-30T02:20:48.868Z,93.69
2018-09-30T02:21:49.177Z,93.72
2018-09-30T02:22:49.518Z,93.54
2018-09-30T02:23:50.325Z,93.57
2018-09-30T02:24:50.598Z,93.72
2018-09-30T02:24:59.002Z,93.72
2018-09-30T02:26:00.305Z,93.63
2018-09-30T02:27:01.274Z,93.78
2018-09-30T02:28:01.442Z,93.75
2018-09-30T02:29:01.843Z,93.82
2018-09-30T02:30:02.136Z,94.05
2018-09-30T02:31:02.453Z,94.15
2018-09-30T02:32:02.829Z,94.14
2018-09-30T02:33:03.196Z,94.29
2018-09-30T02:34:02.450Z,94.20
2018-09-30T02:35:03.863Z,94.00
2018-09-30T02:36:02.903Z,94.00
2018-09-30T02:37:04.896Z,93.85
2018-09-30T02:38:05.363Z,93.48
2018-09-30T02:39:05.807Z,93.50
2018-09-30T02:40:06.106Z,92.67
2018-09-30T02:41:05.458Z,93.50
2018-09-30T02:42:07.028Z,93.77
2018-09-30T02:43:07.368Z,93.81
2018-09-30T02:44:07.634Z,94.25
2018-09-30T02:45:07.963Z,94.08
2018-09-30T02:46:08.125Z,94.20
2018-09-30T02:47:09.023Z,94.34
2018-09-30T02:48:10.008Z,93.85
2018-09-30T02:49:10.432Z,93.63
2018-09-30T02:50:10.735Z,93.52
2018-09-30T02:51:11.169Z,93.94
2018-09-30T02:52:11.952Z,94.15
2018-09-30T02:53:12.947Z,93.89
2018-09-30T02:54:12.211Z,93.86
2018-09-30T02:55:13.802Z,93.79
2018-09-30T02:56:14.310Z,93.83
2018-09-30T02:57:16.108Z,93.88
2018-09-30T02:58:14.711Z,93.76
2018-09-30T02:59:15.217Z,93.18
2018-09-30T03:00:16.872Z,93.14
2018-09-30T03:01:17.201Z,93.45
2018-09-30T03:02:17.507Z,93.64
2018-09-30T03:03:17.900Z,93.25
2018-09-30T03:04:18.167Z,93.25
2018-09-30T03:05:18.509Z,93.19
2018-09-30T03:06:18.893Z,93.14
2018-09-30T03:07:19.297Z,93.12
2018-09-30T03:08:19.690Z,93.24
2018-09-30T03:09:20.151Z,93.24
2018-09-30T03:10:20.536Z,93.53
2018-09-30T03:11:20.868Z,93.56
2018-09-30T03:12:21.230Z,93.85
2018-09-30T03:13:21.566Z,94.16
2018-09-30T03:14:22.334Z,93.64
2018-09-30T03:15:21.573Z,93.39
2018-09-30T03:16:23.059Z,94.10
2018-09-30T03:16:33.085Z,94.11
2018-09-30T03:17:34.495Z,94.09
2018-09-30T03:18:34.838Z,93.75
2018-09-30T03:19:35.299Z,93.80
2018-09-30T03:20:35.656Z,94.37
2018-09-30T03:21:36.279Z,94.46
2018-09-30T03:22:36.723Z,94.76
2018-09-30T03:23:37.044Z,94.93
2018-09-30T03:24:37.369Z,95.27
2018-09-30T03:25:37.642Z,94.93
2018-09-30T03:26:38.040Z,95.05
2018-09-30T03:27:38.685Z,94.97
2018-09-30T03:28:39.035Z,94.83
2018-09-30T03:29:39.445Z,94.96
2018-09-30T03:30:39.883Z,94.63
2018-09-30T03:31:40.328Z,94.30
2018-09-30T03:32:40.804Z,94.15
2018-09-30T03:33:41.270Z,94.24
2018-09-30T03:34:41.592Z,94.05
2018-09-30T03:35:41.888Z,94.38
2018-09-30T03:36:42.225Z,94.10
2018-09-30T03:37:42.670Z,94.52
2018-09-30T03:38:42.090Z,94.73
2018-09-30T03:39:43.461Z,94.66
2018-09-30T03:40:42.784Z,94.23
2018-09-30T03:41:44.114Z,94.04
2018-09-30T03:42:44.593Z,94.09
2018-09-30T03:43:44.926Z,94.13
2018-09-30T03:44:45.286Z,93.97
2018-09-30T03:45:45.600Z,94.24
2018-09-30T03:46:45.972Z,94.22
2018-09-30T03:47:46.321Z,93.85
2018-09-30T03:48:46.897Z,93.90
2018-09-30T03:49:47.209Z,93.45
2018-09-30T03:50:47.596Z,93.36
2018-09-30T03:51:47.903Z,93.62
2018-09-30T03:52:48.254Z,93.69
2018-09-30T03:53:48.553Z,93.49
2018-09-30T03:54:48.834Z,93.17
2018-09-30T03:55:49.095Z,93.39
2018-09-30T03:56:49.445Z,93.36
2018-09-30T03:57:48.736Z,93.93
2018-09-30T03:58:50.189Z,94.42
2018-09-30T03:59:50.460Z,93.85
2018-09-30T04:00:50.864Z,93.51
2018-09-30T04:00:59.394Z,94.45
2018-09-30T04:02:00.631Z,94.48
2018-09-30T04:03:01.047Z,94.77
2018-09-30T04:04:01.413Z,94.39
2018-09-30T04:05:01.731Z,94.44
2018-09-30T04:06:02.028Z,94.82
2018-09-30T04:07:02.353Z,94.77
2018-09-30T04:08:02.673Z,95.25
2018-09-30T04:09:02.934Z,95.38
2018-09-30T04:10:03.271Z,95.50
2018-09-30T04:11:02.486Z,95.03
2018-09-30T04:12:03.811Z,95.20
2018-09-30T04:13:04.544Z,94.70
2018-09-30T04:14:05.021Z,94.20
2018-09-30T04:15:05.381Z,94.61
2018-09-30T04:16:05.749Z,94.49
2018-09-30T04:17:06.333Z,95.12
2018-09-30T04:18:06.062Z,95.50
2018-09-30T04:19:07.418Z,95.18
2018-09-30T04:20:07.828Z,95.58
2018-09-30T04:21:08.355Z,95.42
2018-09-30T04:22:08.696Z,95.05
2018-09-30T04:23:09.028Z,94.45
2018-09-30T04:24:09.422Z,94.08
2018-09-30T04:25:10.132Z,94.24
2018-09-30T04:26:10.388Z,94.06
2018-09-30T04:27:10.695Z,94.12
2018-09-30T04:28:11.345Z,93.75
2018-09-30T04:29:11.705Z,93.95
2018-09-30T04:30:12.002Z,94.20
2018-09-30T04:31:12.330Z,94.08
2018-09-30T04:32:12.727Z,94.38
2018-09-30T04:33:13.279Z,94.52
2018-09-30T04:34:12.728Z,94.92
2018-09-30T04:35:14.057Z,94.67
2018-09-30T04:36:14.392Z,94.77
2018-09-30T04:37:14.717Z,94.79
2018-09-30T04:38:15.083Z,94.70
2018-09-30T04:39:15.550Z,94.40
2018-09-30T04:40:15.991Z,94.65
2018-09-30T04:41:16.294Z,95.02
2018-09-30T04:42:16.788Z,95.19
2018-09-30T04:43:17.144Z,95.61
2018-09-30T04:44:17.690Z,96.08
2018-09-30T04:45:18.003Z,96.08
2018-09-30T04:46:18.337Z,96.25
2018-09-30T04:46:26.650Z,96.04
2018-09-30T04:47:28.021Z,96.02
2018-09-30T04:48:28.392Z,95.92
2018-09-30T04:49:28.759Z,96.21
2018-09-30T04:50:29.104Z,96.57
2018-09-30T04:51:29.452Z,96.56
2018-09-30T04:52:29.721Z,96.31
2018-09-30T04:53:30.598Z,96.18
2018-09-30T04:54:31.016Z,96.27
2018-09-30T04:55:31.283Z,96.29
2018-09-30T04:56:31.594Z,96.68
2018-09-30T04:57:31.903Z,96.87
2018-09-30T04:58:32.218Z,97.02
2018-09-30T04:59:32.613Z,97.21
2018-09-30T05:00:32.919Z,97.37
2018-09-30T05:01:33.229Z,96.75
2018-09-30T05:02:33.506Z,96.29
2018-09-30T05:03:33.896Z,96.34
2018-09-30T05:04:34.259Z,96.33
2018-09-30T05:05:34.597Z,97.38
2018-09-30T05:06:33.777Z,97.51
2018-09-30T05:07:35.065Z,97.83
2018-09-30T05:08:35.549Z,97.21
2018-09-30T05:09:36.211Z,98.17
2018-09-30T05:10:36.564Z,98.08
2018-09-30T05:11:36.834Z,97.48
2018-09-30T05:12:36.148Z,97.53
2018-09-30T05:13:37.504Z,98.08
2018-09-30T05:14:37.865Z,97.98
2018-09-30T05:15:38.151Z,98.10
2018-09-30T05:16:38.608Z,98.30
2018-09-30T05:17:39.479Z,98.12
2018-09-30T05:18:39.904Z,98.08
2018-09-30T05:19:40.207Z,98.14
2018-09-30T05:20:40.523Z,98.65
2018-09-30T05:21:39.893Z,98.72
2018-09-30T05:22:41.211Z,98.77
2018-09-30T05:23:41.561Z,98.76
2018-09-30T05:24:41.861Z,98.89
2018-09-30T05:25:42.257Z,99.15
2018-09-30T05:26:41.462Z,99.03
2018-09-30T05:27:42.952Z,99.12
2018-09-30T05:28:41.793Z,99.24
2018-09-30T05:29:43.122Z,98.82
2018-09-30T05:30:43.405Z,99.22
2018-09-30T05:31:43.794Z,99.46
2018-09-30T05:32:44.079Z,99.07
2018-09-30T05:33:44.773Z,99.01
2018-09-30T05:34:44.089Z,98.36
2018-09-30T05:34:52.403Z,98.48
2018-09-30T05:35:53.900Z,98.47
2018-09-30T05:36:54.167Z,97.83
2018-09-30T05:37:54.420Z,97.75
2018-09-30T05:38:54.741Z,97.77
2018-09-30T05:39:55.023Z,97.53
2018-09-30T05:40:55.809Z,97.48
2018-09-30T05:41:56.086Z,97.55
2018-09-30T05:42:56.316Z,97.68
2018-09-30T05:43:56.687Z,97.62
2018-09-30T05:44:57.016Z,98.09
2018-09-30T05:45:57.302Z,97.90
2018-09-30T05:46:57.572Z,97.57
2018-09-30T05:47:57.911Z,97.67
2018-09-30T05:48:57.335Z,97.82
2018-09-30T05:49:58.792Z,98.05
2018-09-30T05:50:59.194Z,98.33
2018-09-30T05:51:59.487Z,98.48
2018-09-30T05:52:59.924Z,97.98
2018-09-30T05:54:00.256Z,98.07
2018-09-30T05:55:00.566Z,97.92
2018-09-30T05:56:01.311Z,98.08
2018-09-30T05:57:00.785Z,98.31
2018-09-30T05:58:02.258Z,98.13
2018-09-30T05:59:01.637Z,97.72
2018-09-30T06:00:03.382Z,97.54
2018-09-30T06:01:03.700Z,97.80
2018-09-30T06:02:04.016Z,97.58
2018-09-30T06:03:04.341Z,97.56
2018-09-30T06:04:04.772Z,97.46
2018-09-30T06:05:04.046Z,96.94
2018-09-30T06:06:05.421Z,97.20
2018-09-30T06:07:05.728Z,96.66
2018-09-30T06:08:06.296Z,96.91
2018-09-30T06:09:06.730Z,96.67
2018-09-30T06:10:05.998Z,96.27
2018-09-30T06:11:07.358Z,96.36
2018-09-30T06:12:07.658Z,96.75
2018-09-30T06:13:07.960Z,96.42
2018-09-30T06:14:08.608Z,96.17
2018-09-30T06:15:07.684Z,96.22
2018-09-30T06:16:09.018Z,96.31
2018-09-30T06:17:09.302Z,95.96
2018-09-30T06:18:09.615Z,96.08
2018-09-30T06:19:10.131Z,96.24
2018-09-30T06:20:10.513Z,96.26
2018-09-30T06:21:10.959Z,96.43
2018-09-30T06:22:11.324Z,96.16
2018-09-30T06:23:11.631Z,95.74
2018-09-30T06:23:20.083Z,95.83
2018-09-30T06:24:21.486Z,95.83
2018-09-30T06:25:21.853Z,95.46
2018-09-30T06:26:22.110Z,95.94
2018-09-30T06:27:22.416Z,96.32
2018-09-30T06:28:22.764Z,96.09
2018-09-30T06:29:23.231Z,95.39
2018-09-30T06:30:23.550Z,95.54
2018-09-30T06:31:23.850Z,95.56
2018-09-30T06:32:24.132Z,95.67
2018-09-30T06:33:24.407Z,96.06
2018-09-30T06:34:24.799Z,95.97
2018-09-30T06:35:25.131Z,96.23
2018-09-30T06:36:25.428Z,95.75
2018-09-30T06:37:25.936Z,95.83
2018-09-30T06:38:26.452Z,95.49
2018-09-30T06:39:26.956Z,95.53
2018-09-30T06:40:27.304Z,95.21
2018-09-30T06:41:26.602Z,94.97
2018-09-30T06:42:26.842Z,94.46
2018-09-30T06:43:28.142Z,94.90
2018-09-30T06:44:28.502Z,94.77
2018-09-30T06:45:28.970Z,94.27
2018-09-30T06:46:28.285Z,94.07
2018-09-30T06:47:29.545Z,93.61
2018-09-30T06:48:29.834Z,93.60
2018-09-30T06:49:30.192Z,94.09
2018-09-30T06:50:30.544Z,93.69
2018-09-30T06:51:31.422Z,93.47
2018-09-30T06:52:31.890Z,92.96
2018-09-30T06:53:32.345Z,92.75
2018-09-30T06:54:32.721Z,91.90
2018-09-30T06:55:33.344Z,92.33
2018-09-30T06:56:33.781Z,92.72
2018-09-30T06:57:34.112Z,92.29
2018-09-30T06:58:34.532Z,91.13
2018-09-30T06:59:34.994Z,91.06
2018-09-30T07:00:35.296Z,91.00
2018-09-30T07:01:35.781Z,90.75
2018-09-30T07:02:36.204Z,90.18
2018-09-30T07:03:36.678Z,90.47
2018-09-30T07:04:37.076Z,90.59
2018-09-30T07:05:37.411Z,90.87
2018-09-30T07:06:37.864Z,90.32
2018-09-30T07:07:38.195Z,90.60
2018-09-30T07:08:38.661Z,90.32
2018-09-30T07:09:00.857Z,90.31
2018-09-30T07:10:01.344Z,90.27
2018-09-30T07:11:01.692Z,90.72
2018-09-30T07:12:02.110Z,90.64
2018-09-30T07:13:02.455Z,90.48
2018-09-30T07:14:02.823Z,90.67
2018-09-30T07:15:03.287Z,89.97
2018-09-30T07:16:03.666Z,89.96
2018-09-30T07:17:04.074Z,89.87
2018-09-30T07:18:04.401Z,89.84
2018-09-30T07:19:04.830Z,89.37
2018-09-30T07:20:05.192Z,89.86
2018-09-30T07:21:05.558Z,90.38
2018-09-30T07:22:05.856Z,89.94
2018-09-30T07:23:06.224Z,90.77
2018-09-30T07:24:06.697Z,90.17
2018-09-30T07:25:07.235Z,90.29
2018-09-30T07:26:07.561Z,89.30
2018-09-30T07:27:08.019Z,89.22
2018-09-30T07:28:08.472Z,88.53
2018-09-30T07:29:08.893Z,88.74
2018-09-30T07:30:09.243Z,88.42
2018-09-30T07:31:09.646Z,88.76
2018-09-30T07:32:09.939Z,89.07
2018-09-30T07:33:10.306Z,89.71
2018-09-30T07:34:10.618Z,89.00
2018-09-30T07:35:11.276Z,89.97
2018-09-30T07:36:10.627Z,89.41
2018-09-30T07:37:12.031Z,89.59
2018-09-30T07:38:12.593Z,89.36
2018-09-30T07:39:12.881Z,89.32
2018-09-30T07:40:13.284Z,88.99
2018-09-30T07:41:13.772Z,88.88
2018-09-30T07:42:14.603Z,88.78
2018-09-30T07:43:15.126Z,88.87
2018-09-30T07:44:15.436Z,89.02
2018-09-30T07:45:15.858Z,89.46
2018-09-30T07:46:16.196Z,89.11
2018-09-30T07:47:16.525Z,89.16
2018-09-30T07:48:16.843Z,89.13
2018-09-30T07:49:17.152Z,89.14
2018-09-30T07:50:17.485Z,88.68
2018-09-30T07:51:17.910Z,89.69
2018-09-30T07:52:18.291Z,90.16
2018-09-30T07:53:18.851Z,89.94
2018-09-30T07:53:27.188Z,90.35
2018-09-30T07:54:28.459Z,90.43
2018-09-30T07:55:28.809Z,90.13
2018-09-30T07:56:29.171Z,90.37
2018-09-30T07:57:29.627Z,90.46
2018-09-30T07:58:30.131Z,91.19
2018-09-30T07:59:30.655Z,90.99
2018-09-30T08:00:31.174Z,90.13
2018-09-30T08:01:31.739Z,89.17
2018-09-30T08:02:32.137Z,85.38
2018-09-30T08:03:32.637Z,84.42
2018-09-30T08:04:33.145Z,81.86
2018-09-30T08:05:33.674Z,79.64
2018-09-30T08:06:34.569Z,76.34
2018-09-30T08:07:34.017Z,74.03
2018-09-30T08:08:34.439Z,73.38
2018-09-30T08:09:35.753Z,72.91
2018-09-30T08:10:36.152Z,72.46
2018-09-30T08:11:36.573Z,71.20
2018-09-30T08:12:37.073Z,68.65
2018-09-30T08:13:37.526Z,66.46
2018-09-30T08:14:38.158Z,64.30
2018-09-30T08:15:38.551Z,62.49
2018-09-30T08:16:39.000Z,61.40
2018-09-30T08:17:38.279Z,60.22
2018-09-30T08:18:38.887Z,60.49
2018-09-30T08:19:39.558Z,59.67
2018-09-30T08:20:40.042Z,59.51
2018-09-30T08:21:41.372Z,57.81
2018-09-30T08:22:41.769Z,57.53
2018-09-30T08:23:42.170Z,56.25
2018-09-30T08:24:42.574Z,54.89
2018-09-30T08:25:43.173Z,55.23
2018-09-30T08:26:43.901Z,54.03
2018-09-30T08:27:44.228Z,53.34
2018-09-30T08:28:44.575Z,53.30
2018-09-30T08:29:45.281Z,53.38
2018-09-30T08:30:45.656Z,53.23
2018-09-30T08:31:45.046Z,52.79
2018-09-30T08:32:46.361Z,53.36
2018-09-30T08:33:47.252Z,53.28
2018-09-30T08:34:47.605Z,52.41
2018-09-30T08:35:48.002Z,52.39
2018-09-30T08:36:48.214Z,51.80
2018-09-30T08:37:48.561Z,51.41
2018-09-30T08:38:48.911Z,50.99
2018-09-30T08:39:49.338Z,51.85
2018-09-30T08:40:48.644Z,51.92
2018-09-30T08:41:49.999Z,52.58
2018-09-30T08:42:49.432Z,52.70
2018-09-30T08:43:51.037Z,52.89
2018-09-30T08:44:00.056Z,53.07
2018-09-30T08:45:00.330Z,53.14
2018-09-30T08:46:00.644Z,53.04
2018-09-30T08:47:00.986Z,53.89
2018-09-30T08:48:01.894Z,54.33
2018-09-30T08:49:03.181Z,54.11
2018-09-30T08:50:02.528Z,54.30
2018-09-30T08:51:02.875Z,54.84
2018-09-30T08:52:03.232Z,55.52
2018-09-30T08:53:03.614Z,56.74
2018-09-30T08:54:03.947Z,58.14
2018-09-30T08:55:04.286Z,58.24
2018-09-30T08:56:04.727Z,57.97
2018-09-30T08:57:04.313Z,57.29
2018-09-30T08:58:05.700Z,57.65
2018-09-30T08:59:06.064Z,56.88
2018-09-30T09:00:06.481Z,57.09
2018-09-30T09:01:06.851Z,57.01
2018-09-30T09:02:07.191Z,57.03
2018-09-30T09:03:07.647Z,56.59
2018-09-30T09:04:07.115Z,56.99
2018-09-30T09:05:08.679Z,57.04
2018-09-30T09:06:08.065Z,57.77
2018-09-30T09:07:09.582Z,57.91
2018-09-30T09:08:09.989Z,58.68
2018-09-30T09:09:10.421Z,57.76
2018-09-30T09:10:11.018Z,58.04
2018-09-30T09:11:11.416Z,57.79
2018-09-30T09:12:11.850Z,58.04
2018-09-30T09:13:12.406Z,57.94
2018-09-30T09:14:13.144Z,57.83
2018-09-30T09:15:13.622Z,57.87
2018-09-30T09:16:13.959Z,57.73
2018-09-30T09:17:14.506Z,57.96
2018-09-30T09:18:14.878Z,58.51
2018-09-30T09:19:15.222Z,58.56
2018-09-30T09:20:15.677Z,58.76
2018-09-30T09:21:16.267Z,58.60
2018-09-30T09:22:16.628Z,58.31
2018-09-30T09:23:17.131Z,58.35
2018-09-30T09:24:18.034Z,58.98
2018-09-30T09:25:18.541Z,59.54
2018-09-30T09:26:18.995Z,60.19
2018-09-30T09:27:19.328Z,60.81
2018-09-30T09:28:19.756Z,60.77
2018-09-30T09:29:20.086Z,61.87
2018-09-30T09:29:28.157Z,62.70
2018-09-30T09:30:29.489Z,62.76
2018-09-30T09:31:29.955Z,62.20
2018-09-30T09:32:29.199Z,61.58
2018-09-30T09:33:30.428Z,61.59
2018-09-30T09:34:30.708Z,60.92
2018-09-30T09:35:31.030Z,60.90
2018-09-30T09:36:31.300Z,61.15
2018-09-30T09:37:31.606Z,61.67
2018-09-30T09:38:32.046Z,63.07
2018-09-30T09:39:31.463Z,62.90
2018-09-30T09:40:32.808Z,64.26
2018-09-30T09:41:33.130Z,64.12
2018-09-30T09:42:34.596Z,64.61
2018-09-30T09:43:33.946Z,64.15
2018-09-30T09:44:34.591Z,63.13
2018-09-30T09:45:34.950Z,62.85
2018-09-30T09:46:35.317Z,64.49
2018-09-30T09:47:35.611Z,64.62
2018-09-30T09:48:35.917Z,65.58
2018-09-30T09:49:36.227Z,64.59
2018-09-30T09:50:36.637Z,64.58
2018-09-30T09:51:36.940Z,64.38
2018-09-30T09:52:37.463Z,64.12
2018-09-30T09:53:36.754Z,64.12
2018-09-30T09:54:38.093Z,63.96
2018-09-30T09:55:38.456Z,64.09
2018-09-30T09:56:38.793Z,63.63
2018-09-30T09:57:39.165Z,63.39
2018-09-30T09:58:39.570Z,64.17
2018-09-30T09:59:40.110Z,62.90
2018-09-30T10:00:40.508Z,62.65
2018-09-30T10:01:40.966Z,63.13
2018-09-30T10:02:41.266Z,62.88
2018-09-30T10:03:41.684Z,64.58
2018-09-30T10:04:42.084Z,63.69
2018-09-30T10:05:42.171Z,66.00
2018-09-30T10:06:42.520Z,66.78
2018-09-30T10:07:42.815Z,65.23
2018-09-30T10:08:43.149Z,64.90
2018-09-30T10:09:43.495Z,64.15
2018-09-30T10:10:43.981Z,66.48
2018-09-30T10:11:44.365Z,64.77
2018-09-30T10:12:44.742Z,64.83
2018-09-30T10:13:45.158Z,63.42
2018-09-30T10:13:53.606Z,62.73
2018-09-30T10:14:54.925Z,62.81
2018-09-30T10:15:55.831Z,61.75
2018-09-30T10:16:56.156Z,62.25
2018-09-30T10:17:56.574Z,62.39
2018-09-30T10:18:56.919Z,61.53
2018-09-30T10:19:57.407Z,62.29
2018-09-30T10:20:57.902Z,61.13
2018-09-30T10:21:58.266Z,62.25
2018-09-30T10:22:58.657Z,60.66
2018-09-30T10:23:58.968Z,60.76
2018-09-30T10:24:59.377Z,60.16
2018-09-30T10:25:59.763Z,61.28
2018-09-30T10:27:00.424Z,61.15
2018-09-30T10:27:59.853Z,61.20
2018-09-30T10:29:01.781Z,61.63
2018-09-30T10:30:02.183Z,61.59
2018-09-30T10:31:02.531Z,61.43
2018-09-30T10:32:03.320Z,59.40
2018-09-30T10:33:03.918Z,60.17
2018-09-30T10:34:04.677Z,59.20
2018-09-30T10:35:05.033Z,58.64
2018-09-30T10:36:05.596Z,58.91
2018-09-30T10:37:05.973Z,60.03
2018-09-30T10:38:06.298Z,59.46
2018-09-30T10:39:06.737Z,59.46
2018-09-30T10:40:06.016Z,59.41
2018-09-30T10:41:07.368Z,58.90
2018-09-30T10:42:07.814Z,59.59
2018-09-30T10:43:08.357Z,57.96
2018-09-30T10:44:08.837Z,59.14
2018-09-30T10:45:09.316Z,59.20
2018-09-30T10:46:09.949Z,58.24
2018-09-30T10:47:10.496Z,57.45
2018-09-30T10:48:10.815Z,57.01
2018-09-30T10:49:11.375Z,56.57
2018-09-30T10:50:11.746Z,57.53
2018-09-30T10:51:12.110Z,57.90
2018-09-30T10:52:12.482Z,60.63
2018-09-30T10:53:12.798Z,59.65
2018-09-30T10:54:13.141Z,58.53
2018-09-30T10:55:13.675Z,57.39
2018-09-30T10:56:13.182Z,56.20
2018-09-30T10:57:13.462Z,57.98
2018-09-30T10:58:14.785Z,60.67
2018-09-30T10:59:15.285Z,59.78
2018-09-30T11:00:15.624Z,59.77
2018-09-30T11:01:16.046Z,59.02
2018-09-30T11:02:16.392Z,56.92
2018-09-30T11:02:25.492Z,58.89
2018-09-30T11:03:26.853Z,58.96
2018-09-30T11:04:26.146Z,59.95
2018-09-30T11:05:27.618Z,61.51
2018-09-30T11:06:28.554Z,61.70
2018-09-30T11:07:29.029Z,57.45
2018-09-30T11:08:29.613Z,60.79
2018-09-30T11:09:29.940Z,59.03
2018-09-30T11:10:29.388Z,59.07
2018-09-30T11:11:30.741Z,62.15
2018-09-30T11:12:31.227Z,59.90
2018-09-30T11:13:31.609Z,58.08
2018-09-30T11:14:32.008Z,58.87
2018-09-30T11:15:32.981Z,58.15
2018-09-30T11:16:31.339Z,57.37
2018-09-30T11:17:32.689Z,57.72
2018-09-30T11:18:33.048Z,56.19
2018-09-30T11:19:33.369Z,56.48
2018-09-30T11:20:34.716Z,57.27
2018-09-30T11:21:34.166Z,57.19
2018-09-30T11:22:34.560Z,56.71
2018-09-30T11:23:33.806Z,56.36
2018-09-30T11:24:35.143Z,56.29
2018-09-30T11:25:35.472Z,55.61
2018-09-30T11:26:36.026Z,55.66
2018-09-30T11:27:36.338Z,55.89
2018-09-30T11:28:36.860Z,55.90
2018-09-30T11:29:37.214Z,55.19
2018-09-30T11:30:37.685Z,55.87
2018-09-30T11:31:38.062Z,56.17
2018-09-30T11:32:38.687Z,55.61
2018-09-30T11:33:38.012Z,55.11
2018-09-30T11:34:38.395Z,55.34
2018-09-30T11:35:39.932Z,56.07
2018-09-30T11:36:40.289Z,56.16
2018-09-30T11:37:40.626Z,55.31
2018-09-30T11:38:41.075Z,54.87
2018-09-30T11:39:41.489Z,55.52
2018-09-30T11:40:41.845Z,55.99
2018-09-30T11:41:42.264Z,55.94
2018-09-30T11:42:42.635Z,55.57
2018-09-30T11:43:41.914Z,56.20
2018-09-30T11:44:43.303Z,56.63
2018-09-30T11:45:43.832Z,56.58
2018-09-30T11:46:44.168Z,56.18
2018-09-30T11:47:46.975Z,55.67
2018-09-30T11:48:43.520Z,54.28
2018-09-30T11:49:45.094Z,55.29
2018-09-30T11:50:46.110Z,53.87
2018-09-30T11:51:46.476Z,55.08
2018-09-30T11:52:46.952Z,56.07
2018-09-30T11:52:54.983Z,55.53
2018-09-30T11:53:56.319Z,55.32
2018-09-30T11:54:56.795Z,55.70
2018-09-30T11:55:57.309Z,53.62
2018-09-30T11:56:57.699Z,51.62
2018-09-30T11:57:58.466Z,51.80
2018-09-30T11:58:58.822Z,51.56
2018-09-30T11:59:59.104Z,52.25
2018-09-30T12:00:59.497Z,53.26
2018-09-30T12:01:59.877Z,53.12
2018-09-30T12:03:00.170Z,52.76
2018-09-30T12:04:00.617Z,52.68
2018-09-30T12:05:01.219Z,52.08
2018-09-30T12:06:01.637Z,52.88
2018-09-30T12:07:01.964Z,52.87
2018-09-30T12:08:02.290Z,52.18
2018-09-30T12:09:02.623Z,52.74
2018-09-30T12:10:03.258Z,51.19
2018-09-30T12:11:03.823Z,52.45
2018-09-30T12:12:04.142Z,50.30
2018-09-30T12:13:04.584Z,51.02
2018-09-30T12:14:04.894Z,50.13
2018-09-30T12:15:05.235Z,50.27
2018-09-30T12:16:05.696Z,50.83
2018-09-30T12:17:05.992Z,50.56
2018-09-30T12:18:06.348Z,51.18
2018-09-30T12:19:06.697Z,51.73
2018-09-30T12:20:07.041Z,49.78
2018-09-30T12:21:07.446Z,48.65
2018-09-30T12:22:07.908Z,49.85
2018-09-30T12:23:08.413Z,50.14
2018-09-30T12:24:08.732Z,48.93
2018-09-30T12:25:09.035Z,48.39
2018-09-30T12:26:09.615Z,49.87
2018-09-30T12:27:09.929Z,51.01
2018-09-30T12:28:10.248Z,49.61
2018-09-30T12:29:10.644Z,48.83
2018-09-30T12:30:10.996Z,46.87
2018-09-30T12:31:11.370Z,47.12
2018-09-30T12:32:11.707Z,46.89
2018-09-30T12:33:11.995Z,46.55
2018-09-30T12:34:12.579Z,45.78
2018-09-30T12:35:12.902Z,47.46
2018-09-30T12:36:13.326Z,46.80
2018-09-30T12:37:13.659Z,48.05
2018-09-30T12:37:22.083Z,46.00
2018-09-30T12:38:23.507Z,46.13
2018-09-30T12:39:24.008Z,46.24
2018-09-30T12:40:23.359Z,46.14
2018-09-30T12:41:24.832Z,46.77
2018-09-30T12:42:25.244Z,47.48
2018-09-30T12:43:25.598Z,47.22
2018-09-30T12:44:25.918Z,46.99